sensor_id;sensor_type;location;lat;lon;timestamp;P1;durP1;ratioP1;P2;durP2;ratioP2
44564;SDS011;30275;51.822;-0.326;2023-05-14T00:01:51;21.67;;;13.85;;
44564;SDS011;30275;51.822;-0.326;2023-05-14T00:04:16;20.52;;;15.52;;
44564;SDS011;30275;51.822;-0.326;2023-05-14T00:06:43;18.63;;;14.85;;
44564;SDS011;30275;51.822;-0.326;2023-05-14T00:09:09;21.55;;;14.73;;
44564;SDS011;30275;51.822;-0.326;2023-05-14T00:11:35;18.02;;;14.48;;
44564;SDS011;30275;51.822;-0.326;2023-05-14T00:14:01;21.85;;;14.20;;
44564;SDS011;30275;51.822;-0.326;2023-05-14T00:16:26;19.92;;;14.63;;
44564;SDS011;30275;51.822;-0.326;2023-05-14T00:18:52;22.48;;;14.98;;
44564;SDS011;30275;51.822;-0.326;2023-05-14T00:21:18;22.27;;;15.00;;
44564;SDS011;30275;51.822;-0.326;2023-05-14T00:23:43;26.20;;;15.15;;
44564;SDS011;30275;51.822;-0.326;2023-05-14T00:26:09;22.88;;;14.68;;
44564;SDS011;30275;51.822;-0.326;2023-05-14T00:28:34;20.85;;;14.95;;
44564;SDS011;30275;51.822;-0.326;2023-05-14T00:31:00;21.88;;;15.32;;
44564;SDS011;30275;51.822;-0.326;2023-05-14T00:33:25;18.73;;;15.85;;
44564;SDS011;30275;51.822;-0.326;2023-05-14T00:35:51;20.23;;;14.45;;
44564;SDS011;30275;51.822;-0.326;2023-05-14T00:38:17;24.73;;;15.13;;
44564;SDS011;30275;51.822;-0.326;2023-05-14T00:40:43;24.13;;;15.18;;
44564;SDS011;30275;51.822;-0.326;2023-05-14T00:43:15;21.50;;;14.13;;
44564;SDS011;30275;51.822;-0.326;2023-05-14T00:45:45;19.10;;;14.98;;
44564;SDS011;30275;51.822;-0.326;2023-05-14T00:48:11;18.55;;;14.35;;
44564;SDS011;30275;51.822;-0.326;2023-05-14T00:50:37;23.40;;;16.05;;
44564;SDS011;30275;51.822;-0.326;2023-05-14T00:53:03;24.10;;;16.25;;
44564;SDS011;30275;51.822;-0.326;2023-05-14T00:55:34;21.25;;;15.63;;
44564;SDS011;30275;51.822;-0.326;2023-05-14T00:58:06;21.25;;;15.45;;
44564;SDS011;30275;51.822;-0.326;2023-05-14T01:00:34;23.05;;;16.25;;
44564;SDS011;30275;51.822;-0.326;2023-05-14T01:03:01;23.45;;;16.60;;
44564;SDS011;30275;51.822;-0.326;2023-05-14T01:05:28;22.98;;;15.60;;
44564;SDS011;30275;51.822;-0.326;2023-05-14T01:08:05;19.88;;;15.90;;
44564;SDS011;30275;51.822;-0.326;2023-05-14T01:10:38;23.52;;;15.50;;
44564;SDS011;30275;51.822;-0.326;2023-05-14T01:13:17;22.65;;;15.68;;
44564;SDS011;30275;51.822;-0.326;2023-05-14T01:15:50;22.23;;;16.15;;
44564;SDS011;30275;51.822;-0.326;2023-05-14T01:18:19;23.20;;;15.90;;
44564;SDS011;30275;51.822;-0.326;2023-05-14T01:20:48;23.27;;;16.00;;
44564;SDS011;30275;51.822;-0.326;2023-05-14T01:23:16;23.23;;;15.80;;
44564;SDS011;30275;51.822;-0.326;2023-05-14T01:25:41;22.88;;;15.95;;
44564;SDS011;30275;51.822;-0.326;2023-05-14T01:31:05;25.98;;;17.27;;
44564;SDS011;30275;51.822;-0.326;2023-05-14T01:33:32;29.10;;;18.02;;
44564;SDS011;30275;51.822;-0.326;2023-05-14T01:35:59;30.48;;;18.63;;
44564;SDS011;30275;51.822;-0.326;2023-05-14T01:38:25;27.02;;;17.17;;
44564;SDS011;30275;51.822;-0.326;2023-05-14T01:40:54;23.90;;;16.42;;
44564;SDS011;30275;51.822;-0.326;2023-05-14T01:43:21;25.77;;;16.45;;
44564;SDS011;30275;51.822;-0.326;2023-05-14T01:45:47;24.33;;;17.25;;
44564;SDS011;30275;51.822;-0.326;2023-05-14T01:48:13;26.85;;;18.30;;
44564;SDS011;30275;51.822;-0.326;2023-05-14T01:50:39;23.75;;;17.50;;
44564;SDS011;30275;51.822;-0.326;2023-05-14T01:53:05;26.13;;;17.50;;
44564;SDS011;30275;51.822;-0.326;2023-05-14T01:55:30;25.42;;;17.00;;
44564;SDS011;30275;51.822;-0.326;2023-05-14T01:57:56;27.25;;;18.45;;
44564;SDS011;30275;51.822;-0.326;2023-05-14T02:00:22;28.60;;;16.88;;
44564;SDS011;30275;51.822;-0.326;2023-05-14T02:02:49;23.67;;;17.20;;
44564;SDS011;30275;51.822;-0.326;2023-05-14T02:05:15;27.02;;;15.88;;
44564;SDS011;30275;51.822;-0.326;2023-05-14T02:07:41;25.45;;;16.23;;
44564;SDS011;30275;51.822;-0.326;2023-05-14T02:10:07;24.75;;;16.27;;
44564;SDS011;30275;51.822;-0.326;2023-05-14T02:12:33;27.05;;;16.98;;
44564;SDS011;30275;51.822;-0.326;2023-05-14T02:14:58;25.17;;;17.45;;
44564;SDS011;30275;51.822;-0.326;2023-05-14T02:17:24;25.17;;;15.93;;
44564;SDS011;30275;51.822;-0.326;2023-05-14T02:19:50;23.55;;;17.80;;
44564;SDS011;30275;51.822;-0.326;2023-05-14T02:22:16;22.00;;;15.30;;
44564;SDS011;30275;51.822;-0.326;2023-05-14T02:24:41;26.70;;;16.83;;
44564;SDS011;30275;51.822;-0.326;2023-05-14T02:27:07;27.40;;;17.60;;
44564;SDS011;30275;51.822;-0.326;2023-05-14T02:29:32;33.83;;;18.30;;
44564;SDS011;30275;51.822;-0.326;2023-05-14T02:31:58;25.60;;;17.17;;
44564;SDS011;30275;51.822;-0.326;2023-05-14T02:34:23;27.60;;;18.45;;
44564;SDS011;30275;51.822;-0.326;2023-05-14T02:36:49;24.73;;;16.98;;
44564;SDS011;30275;51.822;-0.326;2023-05-14T02:39:15;25.58;;;15.48;;
44564;SDS011;30275;51.822;-0.326;2023-05-14T02:41:40;22.67;;;16.13;;
44564;SDS011;30275;51.822;-0.326;2023-05-14T02:44:06;25.90;;;16.90;;
44564;SDS011;30275;51.822;-0.326;2023-05-14T02:46:31;27.75;;;17.30;;
44564;SDS011;30275;51.822;-0.326;2023-05-14T02:48:57;26.90;;;16.85;;
44564;SDS011;30275;51.822;-0.326;2023-05-14T02:51:22;26.45;;;16.90;;
44564;SDS011;30275;51.822;-0.326;2023-05-14T02:53:48;23.80;;;16.25;;
44564;SDS011;30275;51.822;-0.326;2023-05-14T02:56:14;24.35;;;15.98;;
44564;SDS011;30275;51.822;-0.326;2023-05-14T02:58:39;26.77;;;17.55;;
44564;SDS011;30275;51.822;-0.326;2023-05-14T03:01:05;24.08;;;16.90;;
44564;SDS011;30275;51.822;-0.326;2023-05-14T03:03:31;24.42;;;17.02;;
44564;SDS011;30275;51.822;-0.326;2023-05-14T03:05:57;21.33;;;15.52;;
44564;SDS011;30275;51.822;-0.326;2023-05-14T03:08:22;26.95;;;16.40;;
44564;SDS011;30275;51.822;-0.326;2023-05-14T03:10:48;27.95;;;17.08;;
44564;SDS011;30275;51.822;-0.326;2023-05-14T03:13:13;24.05;;;16.95;;
44564;SDS011;30275;51.822;-0.326;2023-05-14T03:15:42;25.35;;;17.27;;
44564;SDS011;30275;51.822;-0.326;2023-05-14T03:18:08;24.65;;;17.27;;
44564;SDS011;30275;51.822;-0.326;2023-05-14T03:20:33;24.75;;;16.15;;
44564;SDS011;30275;51.822;-0.326;2023-05-14T03:22:59;25.13;;;16.67;;
44564;SDS011;30275;51.822;-0.326;2023-05-14T03:25:25;27.20;;;18.02;;
44564;SDS011;30275;51.822;-0.326;2023-05-14T03:27:50;26.73;;;17.40;;
44564;SDS011;30275;51.822;-0.326;2023-05-14T03:30:16;28.60;;;18.40;;
44564;SDS011;30275;51.822;-0.326;2023-05-14T03:32:42;25.95;;;17.02;;
44564;SDS011;30275;51.822;-0.326;2023-05-14T03:35:08;25.85;;;17.13;;
44564;SDS011;30275;51.822;-0.326;2023-05-14T03:37:33;24.73;;;16.50;;
44564;SDS011;30275;51.822;-0.326;2023-05-14T03:39:59;26.45;;;17.23;;
44564;SDS011;30275;51.822;-0.326;2023-05-14T03:42:24;28.40;;;17.92;;
44564;SDS011;30275;51.822;-0.326;2023-05-14T03:44:51;32.88;;;18.70;;
44564;SDS011;30275;51.822;-0.326;2023-05-14T03:47:16;28.80;;;18.48;;
44564;SDS011;30275;51.822;-0.326;2023-05-14T03:49:42;28.67;;;17.15;;
44564;SDS011;30275;51.822;-0.326;2023-05-14T03:52:07;31.73;;;19.08;;
44564;SDS011;30275;51.822;-0.326;2023-05-14T03:54:33;31.80;;;18.20;;
44564;SDS011;30275;51.822;-0.326;2023-05-14T03:56:58;28.42;;;17.02;;
44564;SDS011;30275;51.822;-0.326;2023-05-14T03:59:25;28.35;;;17.08;;
44564;SDS011;30275;51.822;-0.326;2023-05-14T04:01:51;31.92;;;19.20;;
44564;SDS011;30275;51.822;-0.326;2023-05-14T04:04:17;32.08;;;17.98;;
44564;SDS011;30275;51.822;-0.326;2023-05-14T04:06:42;33.25;;;18.58;;
44564;SDS011;30275;51.822;-0.326;2023-05-14T04:09:08;31.33;;;19.33;;
44564;SDS011;30275;51.822;-0.326;2023-05-14T04:11:35;31.77;;;19.30;;
44564;SDS011;30275;51.822;-0.326;2023-05-14T04:14:01;29.85;;;18.58;;
44564;SDS011;30275;51.822;-0.326;2023-05-14T04:16:27;28.58;;;18.02;;
44564;SDS011;30275;51.822;-0.326;2023-05-14T04:18:52;35.05;;;19.88;;
44564;SDS011;30275;51.822;-0.326;2023-05-14T04:21:18;30.48;;;20.08;;
44564;SDS011;30275;51.822;-0.326;2023-05-14T04:23:43;28.65;;;19.00;;
44564;SDS011;30275;51.822;-0.326;2023-05-14T04:26:09;28.45;;;17.05;;
44564;SDS011;30275;51.822;-0.326;2023-05-14T04:28:35;25.38;;;17.85;;
44564;SDS011;30275;51.822;-0.326;2023-05-14T04:31:00;25.70;;;17.08;;
44564;SDS011;30275;51.822;-0.326;2023-05-14T04:33:26;31.60;;;18.25;;
44564;SDS011;30275;51.822;-0.326;2023-05-14T04:35:51;31.00;;;19.20;;
44564;SDS011;30275;51.822;-0.326;2023-05-14T04:38:17;38.25;;;19.98;;
44564;SDS011;30275;51.822;-0.326;2023-05-14T04:40:43;30.73;;;19.33;;
44564;SDS011;30275;51.822;-0.326;2023-05-14T04:43:08;28.80;;;17.70;;
44564;SDS011;30275;51.822;-0.326;2023-05-14T04:45:34;34.58;;;18.65;;
44564;SDS011;30275;51.822;-0.326;2023-05-14T04:48:01;30.45;;;18.73;;
44564;SDS011;30275;51.822;-0.326;2023-05-14T04:50:31;34.03;;;18.85;;
44564;SDS011;30275;51.822;-0.326;2023-05-14T04:52:57;39.78;;;19.50;;
44564;SDS011;30275;51.822;-0.326;2023-05-14T04:55:22;34.13;;;19.38;;
44564;SDS011;30275;51.822;-0.326;2023-05-14T04:57:48;31.58;;;19.15;;
44564;SDS011;30275;51.822;-0.326;2023-05-14T05:00:14;32.65;;;19.08;;
44564;SDS011;30275;51.822;-0.326;2023-05-14T05:02:41;36.63;;;20.27;;
44564;SDS011;30275;51.822;-0.326;2023-05-14T05:05:07;34.97;;;18.90;;
44564;SDS011;30275;51.822;-0.326;2023-05-14T05:07:33;27.05;;;17.42;;
44564;SDS011;30275;51.822;-0.326;2023-05-14T05:09:58;32.72;;;18.02;;
44564;SDS011;30275;51.822;-0.326;2023-05-14T05:12:24;37.05;;;21.05;;
44564;SDS011;30275;51.822;-0.326;2023-05-14T05:14:53;28.95;;;18.02;;
44564;SDS011;30275;51.822;-0.326;2023-05-14T05:17:22;28.38;;;18.13;;
44564;SDS011;30275;51.822;-0.326;2023-05-14T05:19:49;30.00;;;18.48;;
44564;SDS011;30275;51.822;-0.326;2023-05-14T05:22:14;30.98;;;20.20;;
44564;SDS011;30275;51.822;-0.326;2023-05-14T05:24:40;27.52;;;17.60;;
44564;SDS011;30275;51.822;-0.326;2023-05-14T05:27:06;28.95;;;17.65;;
44564;SDS011;30275;51.822;-0.326;2023-05-14T05:29:32;35.42;;;17.85;;
44564;SDS011;30275;51.822;-0.326;2023-05-14T05:31:58;30.55;;;19.52;;
44564;SDS011;30275;51.822;-0.326;2023-05-14T05:34:24;27.27;;;18.00;;
44564;SDS011;30275;51.822;-0.326;2023-05-14T05:36:50;30.85;;;18.48;;
44564;SDS011;30275;51.822;-0.326;2023-05-14T05:39:15;26.40;;;17.77;;
44564;SDS011;30275;51.822;-0.326;2023-05-14T05:41:41;30.88;;;18.92;;
44564;SDS011;30275;51.822;-0.326;2023-05-14T05:44:07;29.27;;;18.63;;
44564;SDS011;30275;51.822;-0.326;2023-05-14T05:46:33;25.92;;;16.98;;
44564;SDS011;30275;51.822;-0.326;2023-05-14T05:48:58;25.13;;;16.02;;
44564;SDS011;30275;51.822;-0.326;2023-05-14T05:51:24;25.25;;;15.02;;
44564;SDS011;30275;51.822;-0.326;2023-05-14T05:53:50;21.65;;;15.93;;
44564;SDS011;30275;51.822;-0.326;2023-05-14T05:56:15;26.50;;;16.58;;
44564;SDS011;30275;51.822;-0.326;2023-05-14T05:58:41;24.65;;;15.38;;
44564;SDS011;30275;51.822;-0.326;2023-05-14T06:01:06;28.65;;;15.23;;
44564;SDS011;30275;51.822;-0.326;2023-05-14T06:03:32;30.13;;;17.38;;
44564;SDS011;30275;51.822;-0.326;2023-05-14T06:05:58;24.35;;;15.77;;
44564;SDS011;30275;51.822;-0.326;2023-05-14T06:08:23;26.35;;;16.73;;
44564;SDS011;30275;51.822;-0.326;2023-05-14T06:10:49;22.20;;;14.88;;
44564;SDS011;30275;51.822;-0.326;2023-05-14T06:13:14;24.83;;;16.70;;
44564;SDS011;30275;51.822;-0.326;2023-05-14T06:15:40;27.83;;;15.75;;
44564;SDS011;30275;51.822;-0.326;2023-05-14T06:18:06;29.10;;;16.70;;
44564;SDS011;30275;51.822;-0.326;2023-05-14T06:20:31;41.80;;;17.52;;
44564;SDS011;30275;51.822;-0.326;2023-05-14T06:22:57;37.55;;;16.95;;
44564;SDS011;30275;51.822;-0.326;2023-05-14T06:25:23;31.73;;;17.65;;
44564;SDS011;30275;51.822;-0.326;2023-05-14T06:27:48;33.85;;;17.08;;
44564;SDS011;30275;51.822;-0.326;2023-05-14T06:30:14;33.60;;;17.02;;
44564;SDS011;30275;51.822;-0.326;2023-05-14T06:32:40;36.00;;;17.35;;
44564;SDS011;30275;51.822;-0.326;2023-05-14T06:35:05;26.90;;;17.00;;
44564;SDS011;30275;51.822;-0.326;2023-05-14T06:37:31;30.83;;;17.05;;
44564;SDS011;30275;51.822;-0.326;2023-05-14T06:39:57;32.83;;;17.73;;
44564;SDS011;30275;51.822;-0.326;2023-05-14T06:42:22;30.25;;;17.55;;
44564;SDS011;30275;51.822;-0.326;2023-05-14T06:44:48;26.60;;;16.98;;
44564;SDS011;30275;51.822;-0.326;2023-05-14T06:47:14;29.10;;;19.67;;
44564;SDS011;30275;51.822;-0.326;2023-05-14T06:49:39;29.50;;;17.90;;
44564;SDS011;30275;51.822;-0.326;2023-05-14T06:52:05;26.58;;;17.48;;
44564;SDS011;30275;51.822;-0.326;2023-05-14T06:54:31;33.70;;;18.05;;
44564;SDS011;30275;51.822;-0.326;2023-05-14T06:56:56;26.60;;;17.05;;
44564;SDS011;30275;51.822;-0.326;2023-05-14T06:59:22;24.83;;;17.45;;
44564;SDS011;30275;51.822;-0.326;2023-05-14T07:01:47;22.48;;;16.27;;
44564;SDS011;30275;51.822;-0.326;2023-05-14T07:04:13;24.38;;;15.93;;
44564;SDS011;30275;51.822;-0.326;2023-05-14T07:06:39;24.25;;;17.08;;
44564;SDS011;30275;51.822;-0.326;2023-05-14T07:09:04;22.48;;;15.23;;
44564;SDS011;30275;51.822;-0.326;2023-05-14T07:11:31;19.77;;;15.32;;
44564;SDS011;30275;51.822;-0.326;2023-05-14T07:13:57;22.55;;;15.27;;
44564;SDS011;30275;51.822;-0.326;2023-05-14T07:16:23;20.63;;;14.45;;
44564;SDS011;30275;51.822;-0.326;2023-05-14T07:18:49;21.40;;;14.77;;
44564;SDS011;30275;51.822;-0.326;2023-05-14T07:21:15;22.33;;;15.77;;
44564;SDS011;30275;51.822;-0.326;2023-05-14T07:23:40;21.38;;;15.32;;
44564;SDS011;30275;51.822;-0.326;2023-05-14T07:26:06;22.13;;;15.30;;
44564;SDS011;30275;51.822;-0.326;2023-05-14T07:28:32;20.00;;;14.95;;
44564;SDS011;30275;51.822;-0.326;2023-05-14T07:30:58;20.00;;;13.73;;
44564;SDS011;30275;51.822;-0.326;2023-05-14T07:33:24;22.85;;;15.20;;
44564;SDS011;30275;51.822;-0.326;2023-05-14T07:35:50;21.02;;;14.40;;
44564;SDS011;30275;51.822;-0.326;2023-05-14T07:38:17;20.70;;;14.80;;
44564;SDS011;30275;51.822;-0.326;2023-05-14T07:40:43;19.10;;;13.40;;
44564;SDS011;30275;51.822;-0.326;2023-05-14T07:43:09;21.13;;;15.13;;
44564;SDS011;30275;51.822;-0.326;2023-05-14T07:45:35;20.35;;;15.10;;
44564;SDS011;30275;51.822;-0.326;2023-05-14T07:48:01;22.15;;;15.77;;
44564;SDS011;30275;51.822;-0.326;2023-05-14T07:50:27;22.55;;;14.98;;
44564;SDS011;30275;51.822;-0.326;2023-05-14T07:52:53;21.73;;;15.45;;
44564;SDS011;30275;51.822;-0.326;2023-05-14T07:55:18;19.20;;;15.38;;
44564;SDS011;30275;51.822;-0.326;2023-05-14T07:57:45;21.48;;;15.13;;
44564;SDS011;30275;51.822;-0.326;2023-05-14T08:00:10;24.05;;;15.73;;
44564;SDS011;30275;51.822;-0.326;2023-05-14T08:02:37;21.83;;;15.18;;
44564;SDS011;30275;51.822;-0.326;2023-05-14T08:05:02;22.45;;;15.75;;
44564;SDS011;30275;51.822;-0.326;2023-05-14T08:07:28;21.13;;;14.50;;
44564;SDS011;30275;51.822;-0.326;2023-05-14T08:09:54;19.75;;;14.52;;
44564;SDS011;30275;51.822;-0.326;2023-05-14T08:12:20;17.98;;;12.82;;
44564;SDS011;30275;51.822;-0.326;2023-05-14T08:14:45;19.98;;;14.63;;
44564;SDS011;30275;51.822;-0.326;2023-05-14T08:17:11;18.95;;;14.43;;
44564;SDS011;30275;51.822;-0.326;2023-05-14T08:19:36;20.60;;;14.93;;
44564;SDS011;30275;51.822;-0.326;2023-05-14T08:22:02;20.98;;;14.65;;
44564;SDS011;30275;51.822;-0.326;2023-05-14T08:24:28;19.27;;;14.30;;
44564;SDS011;30275;51.822;-0.326;2023-05-14T08:26:54;17.58;;;13.52;;
44564;SDS011;30275;51.822;-0.326;2023-05-14T08:29:20;18.50;;;14.50;;
44564;SDS011;30275;51.822;-0.326;2023-05-14T08:31:45;18.52;;;13.80;;
44564;SDS011;30275;51.822;-0.326;2023-05-14T08:34:12;17.83;;;14.02;;
44564;SDS011;30275;51.822;-0.326;2023-05-14T08:36:37;20.02;;;14.48;;
44564;SDS011;30275;51.822;-0.326;2023-05-14T08:39:03;17.05;;;13.05;;
44564;SDS011;30275;51.822;-0.326;2023-05-14T08:41:29;19.67;;;14.00;;
44564;SDS011;30275;51.822;-0.326;2023-05-14T08:44:05;20.40;;;15.63;;
44564;SDS011;30275;51.822;-0.326;2023-05-14T08:46:38;21.23;;;15.65;;
44564;SDS011;30275;51.822;-0.326;2023-05-14T08:49:17;23.23;;;15.18;;
44564;SDS011;30275;51.822;-0.326;2023-05-14T08:51:49;17.58;;;13.45;;
44564;SDS011;30275;51.822;-0.326;2023-05-14T08:54:15;15.95;;;12.27;;
44564;SDS011;30275;51.822;-0.326;2023-05-14T08:56:42;18.98;;;13.90;;
44564;SDS011;30275;51.822;-0.326;2023-05-14T08:59:10;16.85;;;13.15;;
44564;SDS011;30275;51.822;-0.326;2023-05-14T09:01:36;17.02;;;13.63;;
44564;SDS011;30275;51.822;-0.326;2023-05-14T09:04:03;18.33;;;13.25;;
44564;SDS011;30275;51.822;-0.326;2023-05-14T09:06:32;16.30;;;12.95;;
44564;SDS011;30275;51.822;-0.326;2023-05-14T09:09:02;16.15;;;13.55;;
44564;SDS011;30275;51.822;-0.326;2023-05-14T09:11:28;17.13;;;12.55;;
44564;SDS011;30275;51.822;-0.326;2023-05-14T09:13:54;13.73;;;11.93;;
44564;SDS011;30275;51.822;-0.326;2023-05-14T09:16:19;15.25;;;12.40;;
44564;SDS011;30275;51.822;-0.326;2023-05-14T09:18:46;15.52;;;12.50;;
44564;SDS011;30275;51.822;-0.326;2023-05-14T09:21:12;14.80;;;12.70;;
44564;SDS011;30275;51.822;-0.326;2023-05-14T09:23:40;13.25;;;11.52;;
44564;SDS011;30275;51.822;-0.326;2023-05-14T09:26:07;16.65;;;11.57;;
44564;SDS011;30275;51.822;-0.326;2023-05-14T09:28:33;13.98;;;10.30;;
44564;SDS011;30275;51.822;-0.326;2023-05-14T09:30:58;12.73;;;10.63;;
44564;SDS011;30275;51.822;-0.326;2023-05-14T09:33:24;11.93;;;10.13;;
44564;SDS011;30275;51.822;-0.326;2023-05-14T09:35:54;10.63;;;9.23;;
44564;SDS011;30275;51.822;-0.326;2023-05-14T09:38:22;10.75;;;9.27;;
44564;SDS011;30275;51.822;-0.326;2023-05-14T09:40:51;10.35;;;8.43;;
44564;SDS011;30275;51.822;-0.326;2023-05-14T09:43:17;11.55;;;9.45;;
44564;SDS011;30275;51.822;-0.326;2023-05-14T09:45:43;10.73;;;8.68;;
44564;SDS011;30275;51.822;-0.326;2023-05-14T09:48:08;9.45;;;8.45;;
44564;SDS011;30275;51.822;-0.326;2023-05-14T09:50:40;9.50;;;8.50;;
44564;SDS011;30275;51.822;-0.326;2023-05-14T09:53:06;9.52;;;8.52;;
44564;SDS011;30275;51.822;-0.326;2023-05-14T09:55:32;10.00;;;8.30;;
44564;SDS011;30275;51.822;-0.326;2023-05-14T09:57:59;10.15;;;8.82;;
44564;SDS011;30275;51.822;-0.326;2023-05-14T10:00:25;10.30;;;8.35;;
44564;SDS011;30275;51.822;-0.326;2023-05-14T10:02:50;9.55;;;8.65;;
44564;SDS011;30275;51.822;-0.326;2023-05-14T10:05:17;10.55;;;9.45;;
44564;SDS011;30275;51.822;-0.326;2023-05-14T10:07:48;9.32;;;8.32;;
44564;SDS011;30275;51.822;-0.326;2023-05-14T10:10:18;12.65;;;10.80;;
44564;SDS011;30275;51.822;-0.326;2023-05-14T10:12:46;10.25;;;8.80;;
44564;SDS011;30275;51.822;-0.326;2023-05-14T10:15:17;13.43;;;11.48;;
44564;SDS011;30275;51.822;-0.326;2023-05-14T10:17:51;11.55;;;10.45;;
44564;SDS011;30275;51.822;-0.326;2023-05-14T10:20:22;11.32;;;10.13;;
44564;SDS011;30275;51.822;-0.326;2023-05-14T10:22:50;9.93;;;8.63;;
44564;SDS011;30275;51.822;-0.326;2023-05-14T10:25:16;12.60;;;11.27;;
44564;SDS011;30275;51.822;-0.326;2023-05-14T10:27:42;12.23;;;10.98;;
44564;SDS011;30275;51.822;-0.326;2023-05-14T10:30:11;10.55;;;9.45;;
44564;SDS011;30275;51.822;-0.326;2023-05-14T10:32:37;11.32;;;10.07;;
44564;SDS011;30275;51.822;-0.326;2023-05-14T10:35:15;13.30;;;10.35;;
44564;SDS011;30275;51.822;-0.326;2023-05-14T10:37:42;13.00;;;10.43;;
44564;SDS011;30275;51.822;-0.326;2023-05-14T10:40:09;10.48;;;9.48;;
44564;SDS011;30275;51.822;-0.326;2023-05-14T10:42:37;11.40;;;10.13;;
44564;SDS011;30275;51.822;-0.326;2023-05-14T10:45:08;14.15;;;11.52;;
44564;SDS011;30275;51.822;-0.326;2023-05-14T10:47:39;13.48;;;12.13;;
44564;SDS011;30275;51.822;-0.326;2023-05-14T10:50:10;12.20;;;10.95;;
44564;SDS011;30275;51.822;-0.326;2023-05-14T10:52:37;12.25;;;10.95;;
44564;SDS011;30275;51.822;-0.326;2023-05-14T10:55:06;11.50;;;10.02;;
44564;SDS011;30275;51.822;-0.326;2023-05-14T10:57:32;10.60;;;9.48;;
44564;SDS011;30275;51.822;-0.326;2023-05-14T11:00:02;12.52;;;11.25;;
44564;SDS011;30275;51.822;-0.326;2023-05-14T11:02:35;13.43;;;12.02;;
44564;SDS011;30275;51.822;-0.326;2023-05-14T11:05:02;14.57;;;12.90;;
44564;SDS011;30275;51.822;-0.326;2023-05-14T11:07:39;16.02;;;14.32;;
44564;SDS011;30275;51.822;-0.326;2023-05-14T11:10:07;15.32;;;13.70;;
44564;SDS011;30275;51.822;-0.326;2023-05-14T11:12:38;16.08;;;14.45;;
44564;SDS011;30275;51.822;-0.326;2023-05-14T11:15:06;17.92;;;15.50;;
44564;SDS011;30275;51.822;-0.326;2023-05-14T11:17:36;19.92;;;17.80;;
44564;SDS011;30275;51.822;-0.326;2023-05-14T11:20:04;16.42;;;14.82;;
44564;SDS011;30275;51.822;-0.326;2023-05-14T11:22:30;17.42;;;15.63;;
44564;SDS011;30275;51.822;-0.326;2023-05-14T11:24:56;20.63;;;15.40;;
44564;SDS011;30275;51.822;-0.326;2023-05-14T11:27:22;15.15;;;13.65;;
44564;SDS011;30275;51.822;-0.326;2023-05-14T11:29:48;17.20;;;14.57;;
44564;SDS011;30275;51.822;-0.326;2023-05-14T11:32:14;16.70;;;15.00;;
44564;SDS011;30275;51.822;-0.326;2023-05-14T11:34:42;17.77;;;15.43;;
44564;SDS011;30275;51.822;-0.326;2023-05-14T11:37:09;17.83;;;15.75;;
44564;SDS011;30275;51.822;-0.326;2023-05-14T11:39:36;63.13;;;56.95;;
44564;SDS011;30275;51.822;-0.326;2023-05-14T11:42:11;17.85;;;15.75;;
44564;SDS011;30275;51.822;-0.326;2023-05-14T11:44:38;17.33;;;15.43;;
44564;SDS011;30275;51.822;-0.326;2023-05-14T11:47:05;18.17;;;16.27;;
44564;SDS011;30275;51.822;-0.326;2023-05-14T11:49:31;16.30;;;14.73;;
44564;SDS011;30275;51.822;-0.326;2023-05-14T11:52:00;19.33;;;17.25;;
44564;SDS011;30275;51.822;-0.326;2023-05-14T11:54:28;17.58;;;15.77;;
44564;SDS011;30275;51.822;-0.326;2023-05-14T11:56:57;17.33;;;15.15;;
44564;SDS011;30275;51.822;-0.326;2023-05-14T11:59:24;18.35;;;16.45;;
44564;SDS011;30275;51.822;-0.326;2023-05-14T12:01:51;17.67;;;15.80;;
44564;SDS011;30275;51.822;-0.326;2023-05-14T12:04:19;18.45;;;16.50;;
44564;SDS011;30275;51.822;-0.326;2023-05-14T12:06:49;18.20;;;16.33;;
44564;SDS011;30275;51.822;-0.326;2023-05-14T12:09:16;17.02;;;15.13;;
44564;SDS011;30275;51.822;-0.326;2023-05-14T12:11:46;17.85;;;16.00;;
44564;SDS011;30275;51.822;-0.326;2023-05-14T12:14:19;17.45;;;15.68;;
44564;SDS011;30275;51.822;-0.326;2023-05-14T12:16:46;18.60;;;15.65;;
44564;SDS011;30275;51.822;-0.326;2023-05-14T12:19:13;19.35;;;17.25;;
44564;SDS011;30275;51.822;-0.326;2023-05-14T12:21:41;23.25;;;18.63;;
44564;SDS011;30275;51.822;-0.326;2023-05-14T12:24:08;20.15;;;17.10;;
44564;SDS011;30275;51.822;-0.326;2023-05-14T12:26:39;33.88;;;26.30;;
44564;SDS011;30275;51.822;-0.326;2023-05-14T12:29:11;60.08;;;53.63;;
44564;SDS011;30275;51.822;-0.326;2023-05-14T12:31:37;23.92;;;18.98;;
44564;SDS011;30275;51.822;-0.326;2023-05-14T12:34:12;22.75;;;20.00;;
44564;SDS011;30275;51.822;-0.326;2023-05-14T12:36:38;21.27;;;17.52;;
44564;SDS011;30275;51.822;-0.326;2023-05-14T12:39:04;18.67;;;13.45;;
44564;SDS011;30275;51.822;-0.326;2023-05-14T12:41:30;14.18;;;12.25;;
44564;SDS011;30275;51.822;-0.326;2023-05-14T12:43:55;15.65;;;12.57;;
44564;SDS011;30275;51.822;-0.326;2023-05-14T12:46:22;15.35;;;12.60;;
44564;SDS011;30275;51.822;-0.326;2023-05-14T12:48:48;15.93;;;12.90;;
44564;SDS011;30275;51.822;-0.326;2023-05-14T12:51:13;16.98;;;11.90;;
44564;SDS011;30275;51.822;-0.326;2023-05-14T12:53:39;15.00;;;11.15;;
44564;SDS011;30275;51.822;-0.326;2023-05-14T12:56:05;14.50;;;10.88;;
44564;SDS011;30275;51.822;-0.326;2023-05-14T12:58:31;14.32;;;11.23;;
44564;SDS011;30275;51.822;-0.326;2023-05-14T13:00:56;16.02;;;11.40;;
44564;SDS011;30275;51.822;-0.326;2023-05-14T13:03:22;15.40;;;11.68;;
44564;SDS011;30275;51.822;-0.326;2023-05-14T13:05:49;17.23;;;11.75;;
44564;SDS011;30275;51.822;-0.326;2023-05-14T13:08:16;16.85;;;11.70;;
44564;SDS011;30275;51.822;-0.326;2023-05-14T13:10:42;16.45;;;12.73;;
44564;SDS011;30275;51.822;-0.326;2023-05-14T13:13:08;17.73;;;13.73;;
44564;SDS011;30275;51.822;-0.326;2023-05-14T13:15:35;16.50;;;12.00;;
44564;SDS011;30275;51.822;-0.326;2023-05-14T13:18:01;15.52;;;12.75;;
44564;SDS011;30275;51.822;-0.326;2023-05-14T13:20:27;18.25;;;12.55;;
44564;SDS011;30275;51.822;-0.326;2023-05-14T13:22:54;17.98;;;13.18;;
44564;SDS011;30275;51.822;-0.326;2023-05-14T13:25:20;21.45;;;12.18;;
44564;SDS011;30275;51.822;-0.326;2023-05-14T13:27:46;14.30;;;11.00;;
44564;SDS011;30275;51.822;-0.326;2023-05-14T13:30:14;14.07;;;10.40;;
44564;SDS011;30275;51.822;-0.326;2023-05-14T13:32:42;13.73;;;11.45;;
44564;SDS011;30275;51.822;-0.326;2023-05-14T13:35:08;13.35;;;10.63;;
44564;SDS011;30275;51.822;-0.326;2023-05-14T13:37:33;12.75;;;9.55;;
44564;SDS011;30275;51.822;-0.326;2023-05-14T13:39:59;12.85;;;9.00;;
44564;SDS011;30275;51.822;-0.326;2023-05-14T13:42:25;14.55;;;9.35;;
44564;SDS011;30275;51.822;-0.326;2023-05-14T13:44:51;11.85;;;9.43;;
44564;SDS011;30275;51.822;-0.326;2023-05-14T13:47:16;12.30;;;8.88;;
44564;SDS011;30275;51.822;-0.326;2023-05-14T13:49:42;14.13;;;8.65;;
44564;SDS011;30275;51.822;-0.326;2023-05-14T13:52:08;12.25;;;10.45;;
44564;SDS011;30275;51.822;-0.326;2023-05-14T13:54:33;12.85;;;10.80;;
44564;SDS011;30275;51.822;-0.326;2023-05-14T13:56:59;14.15;;;11.63;;
44564;SDS011;30275;51.822;-0.326;2023-05-14T13:59:24;13.07;;;10.05;;
44564;SDS011;30275;51.822;-0.326;2023-05-14T14:01:50;14.93;;;10.55;;
44564;SDS011;30275;51.822;-0.326;2023-05-14T14:04:16;12.13;;;9.65;;
44564;SDS011;30275;51.822;-0.326;2023-05-14T14:06:41;13.52;;;10.30;;
44564;SDS011;30275;51.822;-0.326;2023-05-14T14:09:07;12.77;;;9.35;;
44564;SDS011;30275;51.822;-0.326;2023-05-14T14:11:33;11.32;;;8.80;;